createdAt,value
2019-05-01T00:00:22.977Z,23.22
2019-05-01T00:01:02.348Z,21.82
2019-05-01T00:01:46.381Z,19.82
2019-05-01T00:02:33.312Z,20.62
2019-05-01T00:03:28.022Z,21.45
2019-05-01T00:04:23.877Z,20.85
2019-05-01T00:05:07.496Z,20.32
2019-05-01T00:05:48.148Z,21.97
2019-05-01T00:07:17.701Z,20.82
2019-05-01T00:07:53.801Z,20.35
2019-05-01T00:08:29.839Z,20.32
2019-05-01T00:09:08.466Z,21.42
2019-05-01T00:09:44.593Z,21.73
2019-05-01T00:10:21.870Z,22.58
2019-05-01T00:10:57.913Z,22.58
2019-05-01T00:11:33.956Z,21.15
2019-05-01T00:12:10.056Z,22.65
2019-05-01T00:12:46.148Z,22.55
2019-05-01T00:13:22.273Z,23.30
2019-05-01T00:13:58.444Z,21.45
2019-05-01T00:14:34.696Z,21.50
2019-05-01T00:15:11.046Z,22.62
2019-05-01T00:15:47.196Z,21.20
2019-05-01T00:16:23.390Z,23.92
2019-05-01T00:16:59.416Z,21.87
2019-05-01T00:17:35.588Z,22.82
2019-05-01T00:18:12.910Z,22.73
2019-05-01T00:18:49.472Z,21.87
2019-05-01T00:19:25.701Z,22.90
2019-05-01T00:20:01.805Z,22.13
2019-05-01T00:20:37.919Z,23.18
2019-05-01T00:21:13.940Z,22.65
2019-05-01T00:21:50.034Z,22.27
2019-05-01T00:22:26.144Z,22.30
2019-05-01T00:23:02.189Z,22.45
2019-05-01T00:23:39.354Z,23.80
2019-05-01T00:24:15.455Z,23.67
2019-05-01T00:24:51.568Z,21.62
2019-05-01T00:25:27.614Z,22.42
2019-05-01T00:26:03.833Z,21.33
2019-05-01T00:26:39.939Z,22.22
2019-05-01T00:27:16.139Z,20.72
2019-05-01T00:27:52.482Z,21.00
2019-05-01T00:28:28.574Z,22.13
2019-05-01T00:29:04.722Z,22.35
2019-05-01T00:29:40.830Z,23.70
2019-05-01T00:30:29.298Z,22.93
2019-05-01T00:30:56.362Z,20.50
2019-05-01T00:31:32.462Z,21.85
2019-05-01T00:32:08.995Z,22.37
2019-05-01T00:32:45.100Z,21.57
2019-05-01T00:33:21.112Z,22.35
2019-05-01T00:33:57.152Z,22.00
2019-05-01T00:34:33.330Z,21.20
2019-05-01T00:35:09.369Z,22.82
2019-05-01T00:35:46.607Z,25.23
2019-05-01T00:36:23.061Z,28.52
2019-05-01T00:36:59.600Z,27.02
2019-05-01T00:37:35.656Z,24.92
2019-05-01T00:38:11.798Z,27.40
2019-05-01T00:38:47.824Z,26.23
2019-05-01T00:39:23.868Z,24.82
2019-05-01T00:40:00.047Z,26.07
2019-05-01T00:40:36.387Z,24.63
2019-05-01T00:41:12.842Z,27.05
2019-05-01T00:41:48.869Z,25.37
2019-05-01T00:42:24.900Z,24.52
2019-05-01T00:43:00.918Z,24.05
2019-05-01T00:43:37.154Z,26.40
2019-05-01T00:44:13.288Z,25.00
2019-05-01T00:44:49.636Z,27.10
2019-05-01T00:45:25.798Z,26.07
2019-05-01T00:46:01.827Z,25.68
2019-05-01T00:46:37.941Z,21.90
2019-05-01T00:47:13.978Z,21.15
2019-05-01T00:47:50.085Z,22.15
2019-05-01T00:48:26.111Z,22.02
2019-05-01T00:49:02.769Z,22.90
2019-05-01T00:49:38.865Z,22.45
2019-05-01T00:50:14.903Z,23.27
2019-05-01T00:50:51.016Z,22.90
2019-05-01T00:51:28.016Z,24.27
2019-05-01T00:52:04.041Z,22.85
2019-05-01T00:52:40.062Z,23.73
2019-05-01T00:53:16.108Z,20.70
2019-05-01T00:53:52.345Z,22.02
2019-05-01T00:54:29.044Z,21.55
2019-05-01T00:55:23.615Z,21.97
2019-05-01T00:56:04.030Z,20.43
2019-05-01T00:56:57.800Z,21.17
2019-05-01T00:57:35.489Z,20.45
2019-05-01T00:58:16.521Z,21.62
2019-05-01T00:58:57.148Z,21.37
2019-05-01T01:00:27.759Z,21.27
2019-05-01T01:01:05.484Z,22.42
2019-05-01T01:01:48.937Z,23.52
2019-05-01T01:02:26.925Z,22.22
2019-05-01T01:03:03.134Z,20.35
2019-05-01T01:03:40.172Z,22.37
2019-05-01T01:04:17.650Z,21.12
2019-05-01T01:04:53.691Z,21.33
2019-05-01T01:05:29.720Z,21.65
2019-05-01T01:06:06.261Z,22.50
2019-05-01T01:06:42.512Z,21.40
2019-05-01T01:07:18.532Z,21.27
2019-05-01T01:07:54.559Z,21.95
2019-05-01T01:08:30.582Z,20.57
2019-05-01T01:09:07.661Z,20.77
2019-05-01T01:09:45.283Z,20.82
2019-05-01T01:10:21.344Z,19.82
2019-05-01T01:10:57.694Z,21.33
2019-05-01T01:11:34.097Z,21.07
2019-05-01T01:12:10.116Z,20.92
2019-05-01T01:12:46.168Z,19.95
2019-05-01T01:13:22.209Z,20.97
2019-05-01T01:13:58.234Z,21.57
2019-05-01T01:14:34.376Z,21.20
2019-05-01T01:15:10.739Z,21.27
2019-05-01T01:15:47.069Z,20.48
2019-05-01T01:16:23.099Z,20.65
2019-05-01T01:16:59.195Z,20.55
2019-05-01T01:17:35.393Z,20.48
2019-05-01T01:18:11.516Z,21.82
2019-05-01T01:18:47.615Z,21.42
2019-05-01T01:19:23.656Z,22.73
2019-05-01T01:19:59.819Z,21.95
2019-05-01T01:20:35.953Z,20.95
2019-05-01T01:21:12.152Z,19.92
2019-05-01T01:21:48.299Z,21.23
2019-05-01T01:22:24.507Z,20.82
2019-05-01T01:23:00.550Z,21.55
2019-05-01T01:23:36.690Z,20.12
2019-05-01T01:24:13.024Z,22.02
2019-05-01T01:24:49.051Z,21.57
2019-05-01T01:25:25.060Z,23.40
2019-05-01T01:26:01.076Z,22.85
2019-05-01T01:26:38.074Z,21.30
2019-05-01T01:27:14.094Z,21.75
2019-05-01T01:27:50.335Z,21.17
2019-05-01T01:28:26.689Z,20.20
2019-05-01T01:29:03.097Z,20.52
2019-05-01T01:29:39.200Z,19.35
2019-05-01T01:30:15.240Z,20.40
2019-05-01T01:30:56.399Z,21.50
2019-05-01T01:31:29.187Z,19.70
2019-05-01T01:32:05.604Z,20.62
2019-05-01T01:32:42.076Z,20.52
2019-05-01T01:33:18.457Z,20.65
2019-05-01T01:33:54.487Z,21.02
2019-05-01T01:34:30.548Z,21.50
2019-05-01T01:35:07.591Z,23.55
2019-05-01T01:35:43.682Z,25.00
2019-05-01T01:36:19.781Z,25.12
2019-05-01T01:36:56.133Z,24.12
2019-05-01T01:37:32.280Z,26.30
2019-05-01T01:38:08.403Z,24.27
2019-05-01T01:38:44.593Z,24.43
2019-05-01T01:39:20.614Z,26.17
2019-05-01T01:39:56.729Z,32.50
2019-05-01T01:40:32.810Z,32.08
2019-05-01T01:41:11.142Z,30.12
2019-05-01T01:41:47.542Z,36.83
2019-05-01T01:42:24.550Z,32.08
2019-05-01T01:43:18.199Z,32.25
2019-05-01T01:43:56.012Z,31.93
2019-05-01T01:44:40.741Z,30.50
2019-05-01T01:45:18.504Z,30.17
2019-05-01T01:45:59.379Z,28.87
2019-05-01T01:46:37.041Z,28.20
2019-05-01T01:47:13.060Z,26.80
2019-05-01T01:48:06.869Z,28.65
2019-05-01T01:48:43.861Z,29.27
2019-05-01T01:49:20.068Z,34.95
2019-05-01T01:49:56.420Z,34.13
2019-05-01T01:50:32.570Z,37.40
2019-05-01T01:51:08.600Z,42.17
2019-05-01T01:51:44.704Z,41.15
2019-05-01T01:52:20.732Z,43.80
2019-05-01T01:52:56.758Z,43.90
2019-05-01T01:53:32.894Z,47.20
2019-05-01T01:54:09.247Z,54.80
2019-05-01T01:54:45.671Z,52.15
2019-05-01T01:55:21.702Z,55.28
2019-05-01T01:55:57.733Z,66.65
2019-05-01T01:56:33.772Z,57.43
2019-05-01T01:57:09.869Z,52.40
2019-05-01T01:57:45.926Z,57.43
2019-05-01T01:58:22.279Z,53.45
2019-05-01T01:58:58.508Z,50.63
2019-05-01T01:59:34.555Z,50.52
2019-05-01T02:00:12.326Z,41.23
2019-05-01T02:00:52.872Z,42.03
2019-05-01T02:01:30.659Z,45.55
2019-05-01T02:02:14.289Z,37.15
2019-05-01T02:02:52.040Z,39.18
2019-05-01T02:03:32.849Z,39.08
2019-05-01T02:05:04.832Z,33.02
2019-05-01T02:05:42.565Z,31.97
2019-05-01T02:06:18.608Z,33.92
2019-05-01T02:06:54.757Z,32.80
2019-05-01T02:07:30.963Z,32.88
2019-05-01T02:08:09.029Z,32.23
2019-05-01T02:08:55.900Z,35.52
2019-05-01T02:09:22.963Z,33.35
2019-05-01T02:09:58.987Z,37.10
2019-05-01T02:10:42.571Z,34.48
2019-05-01T02:11:12.809Z,34.33
2019-05-01T02:11:48.906Z,32.05
2019-05-01T02:12:24.911Z,29.05
2019-05-01T02:13:00.942Z,28.00
2019-05-01T02:13:38.045Z,26.12
2019-05-01T02:14:14.073Z,26.52
2019-05-01T02:14:50.103Z,31.95
2019-05-01T02:15:26.147Z,35.55
2019-05-01T02:16:02.170Z,34.98
2019-05-01T02:16:38.443Z,40.88
2019-05-01T02:17:14.479Z,31.45
2019-05-01T02:17:50.585Z,27.13
2019-05-01T02:18:26.620Z,26.10
2019-05-01T02:19:02.661Z,22.67
2019-05-01T02:19:38.760Z,23.70
2019-05-01T02:20:14.855Z,24.82
2019-05-01T02:20:50.867Z,25.50
2019-05-01T02:21:26.876Z,24.35
2019-05-01T02:22:04.564Z,25.70
2019-05-01T02:22:40.585Z,25.23
2019-05-01T02:23:16.629Z,24.32
2019-05-01T02:23:52.639Z,25.82
2019-05-01T02:24:28.694Z,23.65
2019-05-01T02:25:05.852Z,25.15
2019-05-01T02:25:42.450Z,24.60
2019-05-01T02:26:21.641Z,27.73
2019-05-01T02:27:05.213Z,26.33
2019-05-01T02:27:51.831Z,28.62
2019-05-01T02:28:38.028Z,28.45
2019-05-01T02:29:18.404Z,27.00
2019-05-01T02:29:56.069Z,24.47
2019-05-01T02:30:32.101Z,25.17
2019-05-01T02:31:27.082Z,24.43
2019-05-01T02:31:51.833Z,24.00
2019-05-01T02:32:29.035Z,24.67
2019-05-01T02:33:05.055Z,25.60
2019-05-01T02:33:42.068Z,28.47
2019-05-01T02:34:18.195Z,27.22
2019-05-01T02:34:54.220Z,27.65
2019-05-01T02:35:30.605Z,28.50
2019-05-01T02:36:06.658Z,26.97
2019-05-01T02:36:42.689Z,29.15
2019-05-01T02:37:18.719Z,28.00
2019-05-01T02:37:54.801Z,31.20
2019-05-01T02:38:30.836Z,32.83
2019-05-01T02:39:08.604Z,30.27
2019-05-01T02:39:44.714Z,29.30
2019-05-01T02:40:38.844Z,30.40
2019-05-01T02:41:14.965Z,28.70
2019-05-01T02:41:52.469Z,27.40
2019-05-01T02:42:29.454Z,27.87
2019-05-01T02:43:05.547Z,28.65
2019-05-01T02:43:42.217Z,27.90
2019-05-01T02:44:30.021Z,27.93
2019-05-01T02:45:06.065Z,28.75
2019-05-01T02:45:42.542Z,27.52
2019-05-01T02:46:18.573Z,29.45
2019-05-01T02:46:54.660Z,29.00
2019-05-01T02:47:32.135Z,29.60
2019-05-01T02:48:08.321Z,31.97
2019-05-01T02:49:04.126Z,30.43
2019-05-01T02:49:55.240Z,33.08
2019-05-01T02:51:06.443Z,29.55
2019-05-01T02:51:42.523Z,37.17
2019-05-01T02:52:18.560Z,33.38
2019-05-01T02:52:54.576Z,35.98
2019-05-01T02:53:31.130Z,33.30
2019-05-01T02:54:07.261Z,33.78
2019-05-01T02:54:43.692Z,41.53
2019-05-01T02:55:24.072Z,51.90
2019-05-01T02:56:18.668Z,47.25
2019-05-01T02:56:58.863Z,39.33
2019-05-01T02:57:34.882Z,39.45
2019-05-01T02:58:10.909Z,39.70
2019-05-01T02:58:47.026Z,38.15
2019-05-01T02:59:23.910Z,41.33
2019-05-01T02:59:59.943Z,39.55
2019-05-01T03:00:36.079Z,39.78
2019-05-01T03:01:14.287Z,41.42
2019-05-01T03:01:50.044Z,39.10
2019-05-01T03:02:26.076Z,43.55
2019-05-01T03:03:02.104Z,38.33
2019-05-01T03:03:38.124Z,40.23
2019-05-01T03:04:14.239Z,38.70
2019-05-01T03:04:50.456Z,38.88
2019-05-01T03:05:26.510Z,40.60
2019-05-01T03:06:02.604Z,38.88
2019-05-01T03:06:38.737Z,38.42
2019-05-01T03:07:15.271Z,40.30
2019-05-01T03:07:51.289Z,39.98
2019-05-01T03:08:27.320Z,39.65
2019-05-01T03:09:06.902Z,39.03
2019-05-01T03:09:42.980Z,40.00
2019-05-01T03:10:19.030Z,41.08
2019-05-01T03:10:55.083Z,44.60
2019-05-01T03:11:31.133Z,44.40
2019-05-01T03:12:07.142Z,45.92
2019-05-01T03:12:43.577Z,44.95
2019-05-01T03:13:19.616Z,49.42
2019-05-01T03:13:55.671Z,47.65
2019-05-01T03:14:31.703Z,46.60
2019-05-01T03:15:07.810Z,46.05
2019-05-01T03:15:43.867Z,44.85
2019-05-01T03:16:19.921Z,45.28
2019-05-01T03:16:57.019Z,42.93
2019-05-01T03:17:35.624Z,43.17
2019-05-01T03:18:16.234Z,43.92
2019-05-01T03:18:59.983Z,39.60
2019-05-01T03:19:37.662Z,40.10
2019-05-01T03:20:22.491Z,36.10
2019-05-01T03:21:11.939Z,36.75
2019-05-01T03:21:58.433Z,34.05
2019-05-01T03:22:39.751Z,36.75
2019-05-01T03:23:29.247Z,38.42
2019-05-01T03:24:11.324Z,30.85
2019-05-01T03:24:47.370Z,31.52
2019-05-01T03:25:23.567Z,31.55
2019-05-01T03:25:59.587Z,29.45
2019-05-01T03:26:35.790Z,28.57
2019-05-01T03:27:11.890Z,29.07
2019-05-01T03:27:47.930Z,27.30
2019-05-01T03:28:23.975Z,28.87
2019-05-01T03:29:00.007Z,27.95
2019-05-01T03:29:36.028Z,27.60
2019-05-01T03:30:12.064Z,27.48
2019-05-01T03:30:48.469Z,28.07
2019-05-01T03:31:24.507Z,29.30
2019-05-01T03:32:16.541Z,29.98
2019-05-01T03:32:39.619Z,29.60
2019-05-01T03:33:15.639Z,29.02
2019-05-01T03:33:51.675Z,29.05
2019-05-01T03:34:28.047Z,32.53
2019-05-01T03:35:05.590Z,34.53
2019-05-01T03:35:41.603Z,36.85
2019-05-01T03:36:18.680Z,33.67
2019-05-01T03:36:54.799Z,38.75
2019-05-01T03:37:30.826Z,37.58
2019-05-01T03:38:06.846Z,37.40
2019-05-01T03:38:42.877Z,37.48
2019-05-01T03:39:18.884Z,37.00
2019-05-01T03:39:54.913Z,39.25
2019-05-01T03:40:30.938Z,39.15
2019-05-01T03:41:06.968Z,39.13
2019-05-01T03:41:43.017Z,36.25
2019-05-01T03:42:19.032Z,35.20
2019-05-01T03:42:55.082Z,35.63
2019-05-01T03:43:31.598Z,33.65
2019-05-01T03:44:07.628Z,35.38
2019-05-01T03:44:43.775Z,32.75
2019-05-01T03:45:19.809Z,33.30
2019-05-01T03:45:55.959Z,36.45
2019-05-01T03:46:31.987Z,35.33
2019-05-01T03:47:08.197Z,37.23
2019-05-01T03:47:44.243Z,35.33
2019-05-01T03:48:21.328Z,32.93
2019-05-01T03:48:58.344Z,34.65
2019-05-01T03:49:34.385Z,34.48
2019-05-01T03:50:11.392Z,32.78
2019-05-01T03:50:47.708Z,32.88
2019-05-01T03:51:23.723Z,33.70
2019-05-01T03:51:59.781Z,33.02
2019-05-01T03:52:36.816Z,34.00
2019-05-01T03:53:12.857Z,31.93
2019-05-01T03:53:48.913Z,33.63
2019-05-01T03:54:24.980Z,33.25
2019-05-01T03:55:01.124Z,34.30
2019-05-01T03:55:37.607Z,33.63
2019-05-01T03:56:13.788Z,36.03
2019-05-01T03:56:49.803Z,35.85
2019-05-01T03:57:25.889Z,35.00
2019-05-01T03:58:01.989Z,36.45
2019-05-01T03:58:38.045Z,37.50
2019-05-01T03:59:14.120Z,38.15
2019-05-01T03:59:50.256Z,34.27
2019-05-01T04:00:39.891Z,35.23
2019-05-01T04:01:17.558Z,34.83
2019-05-01T04:02:11.419Z,32.75
2019-05-01T04:02:50.672Z,32.67
2019-05-01T04:03:31.082Z,32.38
2019-05-01T04:04:08.737Z,31.12
2019-05-01T04:04:44.793Z,33.02
2019-05-01T04:05:20.809Z,32.33
2019-05-01T04:05:56.935Z,33.05
2019-05-01T04:06:32.982Z,32.73
2019-05-01T04:07:08.968Z,31.23
2019-05-01T04:07:45.103Z,34.35
2019-05-01T04:08:21.127Z,31.60
2019-05-01T04:08:57.200Z,32.55
2019-05-01T04:09:33.242Z,33.13
2019-05-01T04:10:09.252Z,34.60
2019-05-01T04:10:46.138Z,31.35
2019-05-01T04:11:22.387Z,32.28
2019-05-01T04:11:59.410Z,31.87
2019-05-01T04:12:35.435Z,29.55
2019-05-01T04:13:11.462Z,30.23
2019-05-01T04:13:47.477Z,28.05
2019-05-01T04:14:23.681Z,28.87
2019-05-01T04:14:59.720Z,26.37
2019-05-01T04:15:35.822Z,25.52
2019-05-01T04:16:11.923Z,26.90
2019-05-01T04:16:49.581Z,26.33
2019-05-01T04:17:27.446Z,27.52
2019-05-01T04:18:05.124Z,24.75
2019-05-01T04:18:42.100Z,25.72
2019-05-01T04:19:18.220Z,24.27
2019-05-01T04:19:54.327Z,25.68
2019-05-01T04:20:30.425Z,24.67
2019-05-01T04:21:07.982Z,25.08
2019-05-01T04:21:45.627Z,23.60
2019-05-01T04:22:21.758Z,22.07
2019-05-01T04:22:57.855Z,21.95
2019-05-01T04:23:33.882Z,21.35
2019-05-01T04:24:09.901Z,21.85
2019-05-01T04:24:45.939Z,20.20
2019-05-01T04:25:22.188Z,18.42
2019-05-01T04:25:58.212Z,20.05
2019-05-01T04:26:34.227Z,19.10
2019-05-01T04:27:11.958Z,18.85
2019-05-01T04:27:49.617Z,17.45
2019-05-01T04:28:27.296Z,17.77
2019-05-01T04:29:16.534Z,17.32
2019-05-01T04:29:54.202Z,17.25
2019-05-01T04:30:31.915Z,17.45
2019-05-01T04:31:09.568Z,17.70
2019-05-01T04:31:47.226Z,17.70
2019-05-01T04:32:24.941Z,18.37
2019-05-01T04:33:02.577Z,18.02
2019-05-01T04:33:40.252Z,16.90
2019-05-01T04:34:20.950Z,17.27
2019-05-01T04:35:52.100Z,17.25
2019-05-01T04:36:41.597Z,17.20
2019-05-01T04:37:19.284Z,17.20
2019-05-01T04:37:55.416Z,17.48
2019-05-01T04:38:31.440Z,18.00
2019-05-01T04:39:08.114Z,18.32
2019-05-01T04:39:44.134Z,16.45
2019-05-01T04:40:20.438Z,18.70
2019-05-01T04:40:56.506Z,17.42
2019-05-01T04:41:32.525Z,16.40
2019-05-01T04:42:08.671Z,16.97
2019-05-01T04:42:44.716Z,16.90
2019-05-01T04:43:20.740Z,16.75
2019-05-01T04:43:56.868Z,16.67
2019-05-01T04:44:33.650Z,17.07
2019-05-01T04:45:09.779Z,15.68
2019-05-01T04:45:45.908Z,16.30
2019-05-01T04:46:21.979Z,17.52
2019-05-01T04:46:58.503Z,17.87
2019-05-01T04:47:34.516Z,15.28
2019-05-01T04:48:10.725Z,18.20
2019-05-01T04:48:46.773Z,17.57
2019-05-01T04:49:23.876Z,16.48
2019-05-01T04:50:00.456Z,16.42
2019-05-01T04:50:36.554Z,15.78
2019-05-01T04:51:12.573Z,17.25
2019-05-01T04:51:49.671Z,16.32
2019-05-01T04:52:26.646Z,15.32
2019-05-01T04:53:02.655Z,15.63
2019-05-01T04:53:40.045Z,15.93
2019-05-01T04:54:16.239Z,16.25
2019-05-01T04:54:52.326Z,16.90
2019-05-01T04:55:28.352Z,15.78
2019-05-01T04:56:04.503Z,16.25
2019-05-01T04:56:40.521Z,14.50
2019-05-01T04:57:17.567Z,15.45
2019-05-01T04:57:53.631Z,14.43
2019-05-01T04:58:29.898Z,14.73
2019-05-01T04:59:06.019Z,15.05
2019-05-01T04:59:42.054Z,15.00
2019-05-01T05:00:18.143Z,15.20
2019-05-01T05:00:54.266Z,15.25
2019-05-01T05:01:35.610Z,15.50
2019-05-01T05:02:13.286Z,15.28
2019-05-01T05:03:03.574Z,14.75
2019-05-01T05:03:28.724Z,14.63
2019-05-01T05:04:04.755Z,14.63
2019-05-01T05:04:40.790Z,15.32
2019-05-01T05:05:16.823Z,14.58
2019-05-01T05:05:52.836Z,15.55
2019-05-01T05:06:28.871Z,15.05
2019-05-01T05:07:04.907Z,15.15
2019-05-01T05:07:40.947Z,15.60
2019-05-01T05:08:17.071Z,15.32
2019-05-01T05:08:53.092Z,14.73
2019-05-01T05:09:39.805Z,15.23
2019-05-01T05:10:15.827Z,15.25
2019-05-01T05:10:53.218Z,15.85
2019-05-01T05:11:30.882Z,15.23
2019-05-01T05:12:09.193Z,13.83
2019-05-01T05:12:52.827Z,15.03
2019-05-01T05:13:33.513Z,15.32
2019-05-01T05:14:17.095Z,14.93
2019-05-01T05:15:06.842Z,15.38
2019-05-01T05:15:44.502Z,16.48
2019-05-01T05:16:22.153Z,15.78
2019-05-01T05:17:08.589Z,15.58
2019-05-01T05:17:44.634Z,14.98
2019-05-01T05:18:21.746Z,15.18
2019-05-01T05:18:57.844Z,13.60
2019-05-01T05:19:33.869Z,14.58
2019-05-01T05:20:09.941Z,15.63
2019-05-01T05:20:45.972Z,14.80
2019-05-01T05:21:22.006Z,14.75
2019-05-01T05:21:58.044Z,15.53
2019-05-01T05:22:34.063Z,14.87
2019-05-01T05:23:10.062Z,14.75
2019-05-01T05:23:46.079Z,13.10
2019-05-01T05:24:22.216Z,16.52
2019-05-01T05:24:58.236Z,14.90
2019-05-01T05:25:34.506Z,14.53
2019-05-01T05:26:10.539Z,13.85
2019-05-01T05:26:46.584Z,13.68
2019-05-01T05:27:23.783Z,14.23
2019-05-01T05:27:59.840Z,13.50
2019-05-01T05:28:36.076Z,13.78
2019-05-01T05:29:13.242Z,13.70
2019-05-01T05:29:49.499Z,13.48
2019-05-01T05:30:25.782Z,13.98
2019-05-01T05:31:02.103Z,14.40
2019-05-01T05:31:38.176Z,15.58
2019-05-01T05:32:14.227Z,15.00
2019-05-01T05:32:50.344Z,17.60
2019-05-01T05:33:27.127Z,14.93
2019-05-01T05:34:03.311Z,13.93
2019-05-01T05:34:39.324Z,14.00
2019-05-01T05:35:15.444Z,13.30
2019-05-01T05:35:51.479Z,13.88
2019-05-01T05:36:28.578Z,14.58
2019-05-01T05:37:06.716Z,13.53
2019-05-01T05:37:56.122Z,14.20
2019-05-01T05:38:39.622Z,13.90
2019-05-01T05:39:23.098Z,14.23
2019-05-01T05:40:00.398Z,13.58
2019-05-01T05:40:37.504Z,14.10
2019-05-01T05:41:13.807Z,13.85
2019-05-01T05:41:49.814Z,14.83
2019-05-01T05:42:25.956Z,14.47
2019-05-01T05:43:02.088Z,14.68
2019-05-01T05:43:38.146Z,15.43
2019-05-01T05:44:14.165Z,13.35
2019-05-01T05:44:50.200Z,15.18
2019-05-01T05:45:26.725Z,14.68
2019-05-01T05:46:03.091Z,15.48
2019-05-01T05:46:39.201Z,14.70
2019-05-01T05:47:15.228Z,14.38
2019-05-01T05:47:51.245Z,14.20
2019-05-01T05:48:27.278Z,14.20
2019-05-01T05:49:03.405Z,14.40
2019-05-01T05:49:39.434Z,14.83
2019-05-01T05:50:17.152Z,14.05
2019-05-01T05:50:57.686Z,14.05
2019-05-01T05:51:35.407Z,13.22
2019-05-01T05:52:16.186Z,13.83
2019-05-01T05:53:07.017Z,13.43
2019-05-01T05:53:44.695Z,13.72
2019-05-01T05:54:31.897Z,14.63
2019-05-01T05:55:12.615Z,13.85
2019-05-01T05:55:56.877Z,13.53
2019-05-01T05:56:41.144Z,15.10
2019-05-01T05:57:30.432Z,14.23
2019-05-01T05:58:08.254Z,13.38
2019-05-01T05:58:46.582Z,14.03
2019-05-01T05:59:25.234Z,16.97
2019-05-01T06:00:02.899Z,26.70
2019-05-01T06:00:40.638Z,24.72
2019-05-01T06:01:34.372Z,14.87
2019-05-01T06:02:12.277Z,12.82
2019-05-01T06:02:49.961Z,12.85
2019-05-01T06:03:46.659Z,14.05
2019-05-01T06:04:36.339Z,14.45
2019-05-01T06:05:16.935Z,13.15
2019-05-01T06:05:57.456Z,13.10
2019-05-01T06:06:35.159Z,13.30
2019-05-01T06:07:12.884Z,13.15
2019-05-01T06:08:06.277Z,12.58
2019-05-01T06:08:42.316Z,13.10
2019-05-01T06:09:18.347Z,12.75
2019-05-01T06:10:05.769Z,13.08
2019-05-01T06:10:46.541Z,13.13
2019-05-01T06:12:04.833Z,12.85
2019-05-01T06:12:46.752Z,13.48
2019-05-01T06:13:23.093Z,12.73
2019-05-01T06:14:15.881Z,12.93
2019-05-01T06:14:53.564Z,13.55
2019-05-01T06:15:41.185Z,12.85
2019-05-01T06:16:17.396Z,12.60
2019-05-01T06:16:55.154Z,13.50
2019-05-01T06:17:32.812Z,12.93
2019-05-01T06:18:11.491Z,13.68
2019-05-01T06:18:49.159Z,13.85
2019-05-01T06:19:26.811Z,12.20
2019-05-01T06:20:14.111Z,13.22
2019-05-01T06:20:51.878Z,13.30
2019-05-01T06:21:36.390Z,12.85
2019-05-01T06:22:22.786Z,13.20
2019-05-01T06:23:09.285Z,13.70
2019-05-01T06:24:05.746Z,12.68
2019-05-01T06:24:40.547Z,13.28
2019-05-01T06:25:25.455Z,12.68
2019-05-01T06:26:04.258Z,13.83
2019-05-01T06:26:40.356Z,13.30
2019-05-01T06:27:16.442Z,14.05
2019-05-01T06:27:52.459Z,13.28
2019-05-01T06:28:29.628Z,15.58
2019-05-01T06:29:06.836Z,14.63
2019-05-01T06:29:42.859Z,13.80
2019-05-01T06:30:18.874Z,16.80
2019-05-01T06:30:56.542Z,17.60
2019-05-01T06:31:32.704Z,17.42
2019-05-01T06:32:08.803Z,23.87
2019-05-01T06:32:44.822Z,17.95
2019-05-01T06:33:20.871Z,13.98
2019-05-01T06:33:56.943Z,13.18
2019-05-01T06:34:32.989Z,12.15
2019-05-01T06:35:09.022Z,11.33
2019-05-01T06:35:46.017Z,12.07
2019-05-01T06:36:23.864Z,12.33
2019-05-01T06:36:59.755Z,11.43
2019-05-01T06:38:00.762Z,12.03
2019-05-01T06:38:36.240Z,11.90
2019-05-01T06:39:13.386Z,12.75
2019-05-01T06:39:49.849Z,12.25
2019-05-01T06:40:27.551Z,12.55
2019-05-01T06:41:03.650Z,12.80
2019-05-01T06:41:42.779Z,12.53
2019-05-01T06:42:19.288Z,11.90
2019-05-01T06:42:55.513Z,11.83
2019-05-01T06:43:33.295Z,12.40
2019-05-01T06:44:17.818Z,13.05
2019-05-01T06:44:55.507Z,12.15
2019-05-01T06:45:32.919Z,13.03
2019-05-01T06:46:13.180Z,12.43
2019-05-01T06:46:50.849Z,13.45
2019-05-01T06:47:28.524Z,12.33
2019-05-01T06:48:06.174Z,13.78
2019-05-01T06:48:48.801Z,13.35
2019-05-01T06:49:28.929Z,13.50
2019-05-01T06:50:07.520Z,13.88
2019-05-01T06:50:54.362Z,13.55
2019-05-01T06:51:35.200Z,16.00
2019-05-01T06:52:48.174Z,15.45
2019-05-01T06:53:24.225Z,15.15
2019-05-01T06:54:00.375Z,13.68
2019-05-01T06:54:36.454Z,13.58
2019-05-01T06:55:12.493Z,16.57
2019-05-01T06:55:51.461Z,14.95
2019-05-01T06:56:26.411Z,13.88
2019-05-01T06:57:02.626Z,13.30
2019-05-01T06:57:43.963Z,13.78
2019-05-01T06:58:20.470Z,12.40
2019-05-01T06:58:55.216Z,11.80
2019-05-01T06:59:33.426Z,12.47
2019-05-01T07:00:11.275Z,12.18
2019-05-01T07:00:47.372Z,13.95
2019-05-01T07:01:24.073Z,12.95
2019-05-01T07:02:18.651Z,12.82
2019-05-01T07:02:54.786Z,13.05
2019-05-01T07:03:30.823Z,13.03
2019-05-01T07:04:14.087Z,14.03
2019-05-01T07:04:51.515Z,12.78
2019-05-01T07:05:27.715Z,13.35
2019-05-01T07:06:13.784Z,12.73
2019-05-01T07:06:41.689Z,13.60
2019-05-01T07:07:25.322Z,20.62
2019-05-01T07:07:55.873Z,19.30
2019-05-01T07:08:34.226Z,21.37
2019-05-01T07:09:12.156Z,13.93
2019-05-01T07:09:49.395Z,26.70
2019-05-01T07:10:31.582Z,17.02
2019-05-01T07:11:04.569Z,15.45
2019-05-01T07:11:42.287Z,14.23
2019-05-01T07:12:23.806Z,12.73
2019-05-01T07:12:59.920Z,12.63
2019-05-01T07:13:40.043Z,12.93
2019-05-01T07:14:16.589Z,13.00
2019-05-01T07:14:53.171Z,14.55
2019-05-01T07:15:29.326Z,12.85
2019-05-01T07:16:05.444Z,13.68
2019-05-01T07:16:42.653Z,13.30
2019-05-01T07:17:18.780Z,12.37
2019-05-01T07:17:54.893Z,12.33
2019-05-01T07:18:31.020Z,12.07
2019-05-01T07:19:07.772Z,12.23
2019-05-01T07:19:57.452Z,12.53
2019-05-01T07:20:35.418Z,13.43
2019-05-01T07:21:11.439Z,13.50
2019-05-01T07:21:47.470Z,12.88
2019-05-01T07:22:23.485Z,12.37
2019-05-01T07:22:59.615Z,12.68
2019-05-01T07:23:35.655Z,12.30
2019-05-01T07:24:11.779Z,12.35
2019-05-01T07:24:49.141Z,11.60
2019-05-01T07:25:25.387Z,13.05
2019-05-01T07:26:01.552Z,12.80
2019-05-01T07:26:37.579Z,11.65
2019-05-01T07:27:13.617Z,12.95
2019-05-01T07:27:53.937Z,12.33
2019-05-01T07:28:34.255Z,12.68
2019-05-01T07:29:24.255Z,12.40
2019-05-01T07:30:04.857Z,13.68
2019-05-01T07:30:50.084Z,12.00
2019-05-01T07:31:25.915Z,13.25
2019-05-01T07:32:06.431Z,15.23
2019-05-01T07:32:41.166Z,18.07
2019-05-01T07:33:17.966Z,19.57
2019-05-01T07:33:54.038Z,15.45
2019-05-01T07:34:31.409Z,13.28
2019-05-01T07:35:07.450Z,13.75
2019-05-01T07:35:43.750Z,13.60
2019-05-01T07:36:19.778Z,13.53
2019-05-01T07:36:55.841Z,11.70
2019-05-01T07:37:31.885Z,12.85
2019-05-01T07:38:10.808Z,12.58
2019-05-01T07:38:46.847Z,11.65
2019-05-01T07:39:23.837Z,12.55
2019-05-01T07:39:59.837Z,13.35
2019-05-01T07:40:36.055Z,12.50
2019-05-01T07:41:12.480Z,12.37
2019-05-01T07:41:49.321Z,12.53
2019-05-01T07:42:27.159Z,12.63
2019-05-01T07:43:04.838Z,12.60
2019-05-01T07:43:59.606Z,12.68
2019-05-01T07:44:38.277Z,13.18
2019-05-01T07:45:31.941Z,12.82
2019-05-01T07:46:27.580Z,12.75
2019-05-01T07:47:20.208Z,12.60
2019-05-01T07:48:01.114Z,13.20
2019-05-01T07:48:41.554Z,13.48
2019-05-01T07:49:54.944Z,13.65
2019-05-01T07:50:32.609Z,12.75
2019-05-01T07:51:09.833Z,13.68
2019-05-01T07:51:53.079Z,12.85
2019-05-01T07:52:29.111Z,13.40
2019-05-01T07:53:05.201Z,13.55
2019-05-01T07:53:41.225Z,13.15
2019-05-01T07:54:17.330Z,14.15
2019-05-01T07:54:54.386Z,12.90
2019-05-01T07:55:36.104Z,13.88
2019-05-01T07:56:12.215Z,13.70
2019-05-01T07:56:48.235Z,13.72
2019-05-01T07:57:24.274Z,13.58
2019-05-01T07:58:00.305Z,13.98
2019-05-01T07:58:36.542Z,12.35
2019-05-01T07:59:12.582Z,13.80
2019-05-01T07:59:48.618Z,13.78
2019-05-01T08:00:29.542Z,13.90
2019-05-01T08:01:13.221Z,14.15
2019-05-01T08:01:49.907Z,13.83
2019-05-01T08:02:30.981Z,14.25
2019-05-01T08:03:07.193Z,13.08
2019-05-01T08:03:42.700Z,12.88
2019-05-01T08:04:35.281Z,13.08
2019-05-01T08:04:57.241Z,13.62
2019-05-01T08:05:33.285Z,13.50
2019-05-01T08:06:09.330Z,13.88
2019-05-01T08:06:45.353Z,13.55
2019-05-01T08:07:21.397Z,13.58
2019-05-01T08:07:57.417Z,13.00
2019-05-01T08:08:33.462Z,13.15
2019-05-01T08:09:11.236Z,13.32
2019-05-01T08:09:50.358Z,13.38
2019-05-01T08:10:26.554Z,12.35
2019-05-01T08:11:05.336Z,12.15
2019-05-01T08:11:44.124Z,12.50
2019-05-01T08:12:18.996Z,11.35
2019-05-01T08:13:00.444Z,12.00
2019-05-01T08:13:35.086Z,13.35